sensor_id;sensor_type;location;lat;lon;timestamp;temperature;humidity
6355;DHT22;3210;48.708;9.030;2023-06-14T00:02:18;12.70;99.90
6355;DHT22;3210;48.708;9.030;2023-06-14T00:04:44;12.70;99.90
6355;DHT22;3210;48.708;9.030;2023-06-14T00:07:15;12.70;99.90
6355;DHT22;3210;48.708;9.030;2023-06-14T00:09:42;12.70;99.90
6355;DHT22;3210;48.708;9.030;2023-06-14T00:12:09;12.70;99.90
6355;DHT22;3210;48.708;9.030;2023-06-14T00:14:35;12.70;99.90
6355;DHT22;3210;48.708;9.030;2023-06-14T00:17:02;12.70;99.90
6355;DHT22;3210;48.708;9.030;2023-06-14T00:19:30;12.70;99.90
6355;DHT22;3210;48.708;9.030;2023-06-14T00:22:00;12.80;99.90
6355;DHT22;3210;48.708;9.030;2023-06-14T00:24:29;13.00;99.90
6355;DHT22;3210;48.708;9.030;2023-06-14T00:26:56;12.90;99.90
6355;DHT22;3210;48.708;9.030;2023-06-14T00:29:23;12.80;99.90
6355;DHT22;3210;48.708;9.030;2023-06-14T00:31:50;12.70;99.90
6355;DHT22;3210;48.708;9.030;2023-06-14T00:34:17;12.70;99.90
6355;DHT22;3210;48.708;9.030;2023-06-14T00:36:44;12.70;99.90
6355;DHT22;3210;48.708;9.030;2023-06-14T00:39:10;12.70;99.90
6355;DHT22;3210;48.708;9.030;2023-06-14T00:41:39;12.70;99.90
6355;DHT22;3210;48.708;9.030;2023-06-14T00:44:06;12.60;99.90
6355;DHT22;3210;48.708;9.030;2023-06-14T00:46:33;12.30;99.90
6355;DHT22;3210;48.708;9.030;2023-06-14T00:49:00;12.40;99.90
6355;DHT22;3210;48.708;9.030;2023-06-14T00:51:28;12.30;99.90
6355;DHT22;3210;48.708;9.030;2023-06-14T00:53:54;12.30;99.90
6355;DHT22;3210;48.708;9.030;2023-06-14T00:56:21;12.40;99.90
6355;DHT22;3210;48.708;9.030;2023-06-14T00:58:50;12.40;99.90
6355;DHT22;3210;48.708;9.030;2023-06-14T01:01:17;12.40;99.90
6355;DHT22;3210;48.708;9.030;2023-06-14T01:03:44;12.40;99.90
6355;DHT22;3210;48.708;9.030;2023-06-14T01:06:18;12.40;99.90
6355;DHT22;3210;48.708;9.030;2023-06-14T01:09:01;12.40;99.90
6355;DHT22;3210;48.708;9.030;2023-06-14T01:11:35;12.20;99.90
6355;DHT22;3210;48.708;9.030;2023-06-14T01:14:05;12.20;99.90
6355;DHT22;3210;48.708;9.030;2023-06-14T01:16:33;12.10;99.90
6355;DHT22;3210;48.708;9.030;2023-06-14T01:19:01;12.00;99.90
6355;DHT22;3210;48.708;9.030;2023-06-14T01:21:28;12.00;99.90
6355;DHT22;3210;48.708;9.030;2023-06-14T01:23:56;12.10;99.90
6355;DHT22;3210;48.708;9.030;2023-06-14T01:26:24;12.10;99.90
6355;DHT22;3210;48.708;9.030;2023-06-14T01:28:52;12.20;99.90
6355;DHT22;3210;48.708;9.030;2023-06-14T01:31:23;12.20;99.90
6355;DHT22;3210;48.708;9.030;2023-06-14T01:33:51;12.00;99.90
6355;DHT22;3210;48.708;9.030;2023-06-14T01:36:19;12.00;99.90
6355;DHT22;3210;48.708;9.030;2023-06-14T01:38:46;12.10;99.90
6355;DHT22;3210;48.708;9.030;2023-06-14T01:41:17;12.10;99.90
6355;DHT22;3210;48.708;9.030;2023-06-14T01:43:45;12.00;99.90
6355;DHT22;3210;48.708;9.030;2023-06-14T01:46:14;11.90;99.90
6355;DHT22;3210;48.708;9.030;2023-06-14T01:48:42;11.90;99.90
6355;DHT22;3210;48.708;9.030;2023-06-14T01:51:09;11.80;99.90
6355;DHT22;3210;48.708;9.030;2023-06-14T01:53:36;11.70;99.90
6355;DHT22;3210;48.708;9.030;2023-06-14T01:56:02;11.70;99.90
6355;DHT22;3210;48.708;9.030;2023-06-14T01:58:31;11.60;99.90
6355;DHT22;3210;48.708;9.030;2023-06-14T02:00:58;11.60;1.00
6355;DHT22;3210;48.708;9.030;2023-06-14T02:03:26;11.70;99.90
6355;DHT22;3210;48.708;9.030;2023-06-14T02:05:53;11.80;99.90
6355;DHT22;3210;48.708;9.030;2023-06-14T02:08:20;11.90;99.90
6355;DHT22;3210;48.708;9.030;2023-06-14T02:10:47;11.70;99.90
6355;DHT22;3210;48.708;9.030;2023-06-14T02:13:14;11.60;1.00
6355;DHT22;3210;48.708;9.030;2023-06-14T02:15:42;11.70;99.90
6355;DHT22;3210;48.708;9.030;2023-06-14T02:18:11;11.50;99.90
6355;DHT22;3210;48.708;9.030;2023-06-14T02:20:38;11.40;99.90
6355;DHT22;3210;48.708;9.030;2023-06-14T02:23:05;11.40;99.90
6355;DHT22;3210;48.708;9.030;2023-06-14T02:25:33;11.40;99.90
6355;DHT22;3210;48.708;9.030;2023-06-14T02:28:00;11.30;99.90
6355;DHT22;3210;48.708;9.030;2023-06-14T02:30:27;11.30;1.00
6355;DHT22;3210;48.708;9.030;2023-06-14T02:32:55;11.20;99.90
6355;DHT22;3210;48.708;9.030;2023-06-14T02:35:22;11.20;99.90
6355;DHT22;3210;48.708;9.030;2023-06-14T02:37:51;11.00;99.90
6355;DHT22;3210;48.708;9.030;2023-06-14T02:40:18;10.90;99.90
6355;DHT22;3210;48.708;9.030;2023-06-14T02:42:45;10.80;99.90
6355;DHT22;3210;48.708;9.030;2023-06-14T02:45:12;10.80;99.90
6355;DHT22;3210;48.708;9.030;2023-06-14T02:47:39;10.60;99.90
6355;DHT22;3210;48.708;9.030;2023-06-14T02:50:08;10.50;99.90
6355;DHT22;3210;48.708;9.030;2023-06-14T02:52:35;10.70;99.90
6355;DHT22;3210;48.708;9.030;2023-06-14T02:55:02;10.80;99.90
6355;DHT22;3210;48.708;9.030;2023-06-14T02:57:29;10.80;99.90
6355;DHT22;3210;48.708;9.030;2023-06-14T02:59:56;10.90;99.90
6355;DHT22;3210;48.708;9.030;2023-06-14T03:02:23;11.00;99.90
6355;DHT22;3210;48.708;9.030;2023-06-14T03:04:49;11.00;99.90
6355;DHT22;3210;48.708;9.030;2023-06-14T03:07:17;10.90;99.90
6355;DHT22;3210;48.708;9.030;2023-06-14T03:09:45;10.90;99.90
6355;DHT22;3210;48.708;9.030;2023-06-14T03:12:12;10.90;99.90
6355;DHT22;3210;48.708;9.030;2023-06-14T03:14:39;10.90;99.90
6355;DHT22;3210;48.708;9.030;2023-06-14T03:17:07;10.70;99.90
6355;DHT22;3210;48.708;9.030;2023-06-14T03:19:35;10.70;99.90
6355;DHT22;3210;48.708;9.030;2023-06-14T03:22:02;10.80;99.90
6355;DHT22;3210;48.708;9.030;2023-06-14T03:24:30;10.80;99.90
6355;DHT22;3210;48.708;9.030;2023-06-14T03:27:02;10.80;99.90
6355;DHT22;3210;48.708;9.030;2023-06-14T03:29:29;10.80;99.90
6355;DHT22;3210;48.708;9.030;2023-06-14T03:32:00;10.80;99.90
6355;DHT22;3210;48.708;9.030;2023-06-14T03:34:27;10.80;99.90
6355;DHT22;3210;48.708;9.030;2023-06-14T03:36:54;10.80;99.90
6355;DHT22;3210;48.708;9.030;2023-06-14T03:39:21;10.60;99.90
6355;DHT22;3210;48.708;9.030;2023-06-14T03:41:49;10.60;99.90
6355;DHT22;3210;48.708;9.030;2023-06-14T03:44:17;10.70;99.90
6355;DHT22;3210;48.708;9.030;2023-06-14T03:46:44;10.70;99.90
6355;DHT22;3210;48.708;9.030;2023-06-14T03:49:11;10.80;99.90
6355;DHT22;3210;48.708;9.030;2023-06-14T03:51:38;10.80;99.90
6355;DHT22;3210;48.708;9.030;2023-06-14T03:54:06;10.80;99.90
6355;DHT22;3210;48.708;9.030;2023-06-14T03:56:33;10.80;99.90
6355;DHT22;3210;48.708;9.030;2023-06-14T03:59:02;10.70;99.90
6355;DHT22;3210;48.708;9.030;2023-06-14T04:01:29;10.80;99.90
6355;DHT22;3210;48.708;9.030;2023-06-14T04:03:57;10.80;99.90
6355;DHT22;3210;48.708;9.030;2023-06-14T04:06:24;10.80;1.00
6355;DHT22;3210;48.708;9.030;2023-06-14T04:08:57;10.90;99.90
6355;DHT22;3210;48.708;9.030;2023-06-14T04:11:29;10.90;99.90
6355;DHT22;3210;48.708;9.030;2023-06-14T04:13:56;10.90;99.90
6355;DHT22;3210;48.708;9.030;2023-06-14T04:16:24;11.00;99.90
6355;DHT22;3210;48.708;9.030;2023-06-14T04:18:51;11.20;99.90
6355;DHT22;3210;48.708;9.030;2023-06-14T04:21:19;11.20;1.00
6355;DHT22;3210;48.708;9.030;2023-06-14T04:23:46;11.20;1.00
6355;DHT22;3210;48.708;9.030;2023-06-14T04:26:13;11.30;99.90
6355;DHT22;3210;48.708;9.030;2023-06-14T04:28:41;11.40;99.90
6355;DHT22;3210;48.708;9.030;2023-06-14T04:31:08;11.60;99.90
6355;DHT22;3210;48.708;9.030;2023-06-14T04:33:36;11.70;99.90
6355;DHT22;3210;48.708;9.030;2023-06-14T04:36:09;11.70;99.90
6355;DHT22;3210;48.708;9.030;2023-06-14T04:38:37;11.70;99.90
6355;DHT22;3210;48.708;9.030;2023-06-14T04:41:03;11.70;1.00
6355;DHT22;3210;48.708;9.030;2023-06-14T04:43:31;11.70;1.00
6355;DHT22;3210;48.708;9.030;2023-06-14T04:46:03;11.70;1.00
6355;DHT22;3210;48.708;9.030;2023-06-14T04:48:31;11.80;1.00
6355;DHT22;3210;48.708;9.030;2023-06-14T04:50:59;12.00;1.00
6355;DHT22;3210;48.708;9.030;2023-06-14T04:53:26;12.10;1.00
6355;DHT22;3210;48.708;9.030;2023-06-14T04:55:54;12.20;1.00
6355;DHT22;3210;48.708;9.030;2023-06-14T04:58:21;12.30;1.00
6355;DHT22;3210;48.708;9.030;2023-06-14T05:00:48;12.50;1.00
6355;DHT22;3210;48.708;9.030;2023-06-14T05:03:14;12.70;1.00
6355;DHT22;3210;48.708;9.030;2023-06-14T05:05:44;12.90;1.00
6355;DHT22;3210;48.708;9.030;2023-06-14T05:08:12;13.00;1.00
6355;DHT22;3210;48.708;9.030;2023-06-14T05:10:39;13.10;1.00
6355;DHT22;3210;48.708;9.030;2023-06-14T05:13:06;13.20;1.00
6355;DHT22;3210;48.708;9.030;2023-06-14T05:15:32;13.40;1.00
6355;DHT22;3210;48.708;9.030;2023-06-14T05:17:59;13.40;1.00
6355;DHT22;3210;48.708;9.030;2023-06-14T05:20:26;13.50;1.00
6355;DHT22;3210;48.708;9.030;2023-06-14T05:22:53;13.60;1.00
6355;DHT22;3210;48.708;9.030;2023-06-14T05:25:22;13.80;1.00
6355;DHT22;3210;48.708;9.030;2023-06-14T05:27:49;13.90;1.00
6355;DHT22;3210;48.708;9.030;2023-06-14T05:30:15;13.90;1.00
6355;DHT22;3210;48.708;9.030;2023-06-14T05:32:43;14.00;1.00
6355;DHT22;3210;48.708;9.030;2023-06-14T05:35:10;14.10;1.00
6355;DHT22;3210;48.708;9.030;2023-06-14T05:37:37;14.30;1.00
6355;DHT22;3210;48.708;9.030;2023-06-14T05:40:05;14.40;1.00
6355;DHT22;3210;48.708;9.030;2023-06-14T05:42:35;14.60;1.00
6355;DHT22;3210;48.708;9.030;2023-06-14T05:45:03;14.70;1.00
6355;DHT22;3210;48.708;9.030;2023-06-14T05:47:31;14.80;1.00
6355;DHT22;3210;48.708;9.030;2023-06-14T05:49:58;15.00;1.00
6355;DHT22;3210;48.708;9.030;2023-06-14T05:52:25;15.20;1.00
6355;DHT22;3210;48.708;9.030;2023-06-14T05:54:51;15.40;1.00
6355;DHT22;3210;48.708;9.030;2023-06-14T05:57:18;15.70;1.00
6355;DHT22;3210;48.708;9.030;2023-06-14T05:59:46;16.00;1.00
6355;DHT22;3210;48.708;9.030;2023-06-14T06:02:13;16.30;1.00
6355;DHT22;3210;48.708;9.030;2023-06-14T06:04:40;16.60;1.00
6355;DHT22;3210;48.708;9.030;2023-06-14T06:07:07;17.00;1.00
6355;DHT22;3210;48.708;9.030;2023-06-14T06:09:34;17.10;1.00
6355;DHT22;3210;48.708;9.030;2023-06-14T06:12:00;17.20;1.00
6355;DHT22;3210;48.708;9.030;2023-06-14T06:14:27;17.30;99.90
6355;DHT22;3210;48.708;9.030;2023-06-14T06:16:56;17.50;1.00
6355;DHT22;3210;48.708;9.030;2023-06-14T06:19:22;17.80;1.00
6355;DHT22;3210;48.708;9.030;2023-06-14T06:21:49;18.00;1.00
6355;DHT22;3210;48.708;9.030;2023-06-14T06:24:16;18.20;99.90
6355;DHT22;3210;48.708;9.030;2023-06-14T06:26:43;18.40;99.90
6355;DHT22;3210;48.708;9.030;2023-06-14T06:29:11;18.70;99.90
6355;DHT22;3210;48.708;9.030;2023-06-14T06:31:37;19.00;99.90
6355;DHT22;3210;48.708;9.030;2023-06-14T06:34:05;19.20;1.00
6355;DHT22;3210;48.708;9.030;2023-06-14T06:36:32;19.40;99.90
6355;DHT22;3210;48.708;9.030;2023-06-14T06:38:59;19.50;99.90
6355;DHT22;3210;48.708;9.030;2023-06-14T06:41:26;18.90;99.90
6355;DHT22;3210;48.708;9.030;2023-06-14T06:43:53;18.80;99.90
6355;DHT22;3210;48.708;9.030;2023-06-14T06:46:20;19.10;99.90
6355;DHT22;3210;48.708;9.030;2023-06-14T06:48:46;19.10;99.90
6355;DHT22;3210;48.708;9.030;2023-06-14T06:51:14;19.10;99.90
6355;DHT22;3210;48.708;9.030;2023-06-14T06:53:42;19.00;99.90
6355;DHT22;3210;48.708;9.030;2023-06-14T06:56:09;18.90;99.90
6355;DHT22;3210;48.708;9.030;2023-06-14T06:58:36;19.10;99.90
6355;DHT22;3210;48.708;9.030;2023-06-14T07:01:03;19.10;99.90
6355;DHT22;3210;48.708;9.030;2023-06-14T07:03:30;19.10;99.90
6355;DHT22;3210;48.708;9.030;2023-06-14T07:05:57;19.20;99.90
6355;DHT22;3210;48.708;9.030;2023-06-14T07:08:25;19.30;99.90
6355;DHT22;3210;48.708;9.030;2023-06-14T07:10:52;19.10;99.90
6355;DHT22;3210;48.708;9.030;2023-06-14T07:13:19;19.00;99.90
6355;DHT22;3210;48.708;9.030;2023-06-14T07:15:46;19.20;99.90
6355;DHT22;3210;48.708;9.030;2023-06-14T07:18:13;19.40;99.90
6355;DHT22;3210;48.708;9.030;2023-06-14T07:20:40;19.40;99.90
6355;DHT22;3210;48.708;9.030;2023-06-14T07:23:08;19.40;99.90
6355;DHT22;3210;48.708;9.030;2023-06-14T07:25:37;19.90;1.00
6355;DHT22;3210;48.708;9.030;2023-06-14T07:28:04;19.70;99.90
6355;DHT22;3210;48.708;9.030;2023-06-14T07:30:31;19.90;99.90
6355;DHT22;3210;48.708;9.030;2023-06-14T07:32:57;20.10;99.90
6355;DHT22;3210;48.708;9.030;2023-06-14T07:35:24;20.00;99.90
6355;DHT22;3210;48.708;9.030;2023-06-14T07:37:51;19.90;99.90
6355;DHT22;3210;48.708;9.030;2023-06-14T07:40:18;19.90;99.90
6355;DHT22;3210;48.708;9.030;2023-06-14T07:42:46;20.10;99.90
6355;DHT22;3210;48.708;9.030;2023-06-14T07:45:14;19.80;99.90
6355;DHT22;3210;48.708;9.030;2023-06-14T07:47:40;20.00;99.90
6355;DHT22;3210;48.708;9.030;2023-06-14T07:50:08;20.00;99.90
6355;DHT22;3210;48.708;9.030;2023-06-14T07:52:35;20.20;99.90
6355;DHT22;3210;48.708;9.030;2023-06-14T07:55:02;20.20;99.90
6355;DHT22;3210;48.708;9.030;2023-06-14T07:57:29;20.60;99.90
6355;DHT22;3210;48.708;9.030;2023-06-14T07:59:57;20.30;99.90
6355;DHT22;3210;48.708;9.030;2023-06-14T08:02:24;20.50;99.90
6355;DHT22;3210;48.708;9.030;2023-06-14T08:04:51;20.10;99.90
6355;DHT22;3210;48.708;9.030;2023-06-14T08:07:18;20.00;99.90
6355;DHT22;3210;48.708;9.030;2023-06-14T08:09:45;20.20;99.90
6355;DHT22;3210;48.708;9.030;2023-06-14T08:12:12;20.50;99.90
6355;DHT22;3210;48.708;9.030;2023-06-14T08:14:39;20.60;99.90
6355;DHT22;3210;48.708;9.030;2023-06-14T08:17:07;20.30;99.90
6355;DHT22;3210;48.708;9.030;2023-06-14T08:19:34;20.40;99.90
6355;DHT22;3210;48.708;9.030;2023-06-14T08:22:02;20.50;99.90
6355;DHT22;3210;48.708;9.030;2023-06-14T08:24:29;20.70;99.90
6355;DHT22;3210;48.708;9.030;2023-06-14T08:26:57;20.60;99.90
6355;DHT22;3210;48.708;9.030;2023-06-14T08:29:26;20.50;99.90
6355;DHT22;3210;48.708;9.030;2023-06-14T08:31:54;20.60;99.90
6355;DHT22;3210;48.708;9.030;2023-06-14T08:34:23;20.40;99.90
6355;DHT22;3210;48.708;9.030;2023-06-14T08:36:50;20.60;99.90
6355;DHT22;3210;48.708;9.030;2023-06-14T08:39:17;21.00;99.90
6355;DHT22;3210;48.708;9.030;2023-06-14T08:41:45;21.10;99.90
6355;DHT22;3210;48.708;9.030;2023-06-14T08:44:12;21.50;99.90
6355;DHT22;3210;48.708;9.030;2023-06-14T08:46:40;21.50;99.90
6355;DHT22;3210;48.708;9.030;2023-06-14T08:49:06;21.60;99.90
6355;DHT22;3210;48.708;9.030;2023-06-14T08:51:36;21.70;99.90
6355;DHT22;3210;48.708;9.030;2023-06-14T08:54:04;21.90;99.90
6355;DHT22;3210;48.708;9.030;2023-06-14T08:56:31;22.30;99.90
6355;DHT22;3210;48.708;9.030;2023-06-14T08:58:59;22.40;99.90
6355;DHT22;3210;48.708;9.030;2023-06-14T09:01:30;22.20;1.00
6355;DHT22;3210;48.708;9.030;2023-06-14T09:03:57;21.80;99.90
6355;DHT22;3210;48.708;9.030;2023-06-14T09:06:24;21.70;99.90
6355;DHT22;3210;48.708;9.030;2023-06-14T09:08:55;21.30;1.00
6355;DHT22;3210;48.708;9.030;2023-06-14T09:11:23;21.60;99.90
6355;DHT22;3210;48.708;9.030;2023-06-14T09:13:51;22.00;99.90
6355;DHT22;3210;48.708;9.030;2023-06-14T09:16:18;22.10;99.90
6355;DHT22;3210;48.708;9.030;2023-06-14T09:18:46;21.90;1.00
6355;DHT22;3210;48.708;9.030;2023-06-14T09:21:15;22.00;99.90
6355;DHT22;3210;48.708;9.030;2023-06-14T09:23:43;22.10;99.90
6355;DHT22;3210;48.708;9.030;2023-06-14T09:26:13;22.30;99.90
6355;DHT22;3210;48.708;9.030;2023-06-14T09:28:44;22.30;99.90
6355;DHT22;3210;48.708;9.030;2023-06-14T09:31:11;22.00;1.00
6355;DHT22;3210;48.708;9.030;2023-06-14T09:33:38;21.80;99.90
6355;DHT22;3210;48.708;9.030;2023-06-14T09:36:10;22.00;99.90
6355;DHT22;3210;48.708;9.030;2023-06-14T09:38:37;21.80;99.90
6355;DHT22;3210;48.708;9.030;2023-06-14T09:41:06;22.10;99.90
6355;DHT22;3210;48.708;9.030;2023-06-14T09:43:34;22.30;99.90
6355;DHT22;3210;48.708;9.030;2023-06-14T09:46:01;22.30;99.90
6355;DHT22;3210;48.708;9.030;2023-06-14T09:48:28;22.40;99.90
6355;DHT22;3210;48.708;9.030;2023-06-14T09:50:57;22.90;99.90
6355;DHT22;3210;48.708;9.030;2023-06-14T09:53:25;22.80;99.90
6355;DHT22;3210;48.708;9.030;2023-06-14T09:55:52;22.90;99.90
6355;DHT22;3210;48.708;9.030;2023-06-14T09:58:23;22.80;99.90
6355;DHT22;3210;48.708;9.030;2023-06-14T10:00:54;22.90;99.90
6355;DHT22;3210;48.708;9.030;2023-06-14T10:03:27;23.10;99.90
6355;DHT22;3210;48.708;9.030;2023-06-14T10:05:55;23.00;99.90
6355;DHT22;3210;48.708;9.030;2023-06-14T10:08:27;22.70;99.90
6355;DHT22;3210;48.708;9.030;2023-06-14T10:10:56;22.70;99.90
6355;DHT22;3210;48.708;9.030;2023-06-14T10:13:23;22.80;99.90
6355;DHT22;3210;48.708;9.030;2023-06-14T10:15:58;23.20;99.90
6355;DHT22;3210;48.708;9.030;2023-06-14T10:18:32;23.50;99.90
6355;DHT22;3210;48.708;9.030;2023-06-14T10:21:05;23.30;99.90
6355;DHT22;3210;48.708;9.030;2023-06-14T10:23:37;23.40;99.90
6355;DHT22;3210;48.708;9.030;2023-06-14T10:26:07;23.40;99.90
6355;DHT22;3210;48.708;9.030;2023-06-14T10:28:37;23.30;99.90
6355;DHT22;3210;48.708;9.030;2023-06-14T10:31:07;22.90;99.90
6355;DHT22;3210;48.708;9.030;2023-06-14T10:33:34;23.20;99.90
6355;DHT22;3210;48.708;9.030;2023-06-14T10:36:25;23.10;99.90
6355;DHT22;3210;48.708;9.030;2023-06-14T10:39:01;23.90;99.90
6355;DHT22;3210;48.708;9.030;2023-06-14T10:41:30;23.80;99.90
6355;DHT22;3210;48.708;9.030;2023-06-14T10:44:31;24.20;1.00
6355;DHT22;3210;48.708;9.030;2023-06-14T10:47:00;23.40;99.90
6355;DHT22;3210;48.708;9.030;2023-06-14T10:49:38;23.00;99.90
6355;DHT22;3210;48.708;9.030;2023-06-14T10:52:08;23.20;99.90
6355;DHT22;3210;48.708;9.030;2023-06-14T10:55:07;23.10;99.90
6355;DHT22;3210;48.708;9.030;2023-06-14T10:57:37;23.00;99.90
6355;DHT22;3210;48.708;9.030;2023-06-14T11:00:05;23.50;99.90
6355;DHT22;3210;48.708;9.030;2023-06-14T11:05:28;24.00;99.90
6355;DHT22;3210;48.708;9.030;2023-06-14T11:08:11;24.20;99.90
6355;DHT22;3210;48.708;9.030;2023-06-14T11:10:43;24.70;99.90
6355;DHT22;3210;48.708;9.030;2023-06-14T11:13:11;24.80;99.90
6355;DHT22;3210;48.708;9.030;2023-06-14T11:15:39;24.70;99.90
6355;DHT22;3210;48.708;9.030;2023-06-14T11:18:12;25.10;99.90
6355;DHT22;3210;48.708;9.030;2023-06-14T11:20:40;24.90;99.90
6355;DHT22;3210;48.708;9.030;2023-06-14T11:23:06;24.00;99.90
6355;DHT22;3210;48.708;9.030;2023-06-14T11:25:33;23.60;99.90
6355;DHT22;3210;48.708;9.030;2023-06-14T11:28:00;23.60;99.90
6355;DHT22;3210;48.708;9.030;2023-06-14T11:30:27;23.30;99.90
6355;DHT22;3210;48.708;9.030;2023-06-14T11:32:55;23.50;99.90
6355;DHT22;3210;48.708;9.030;2023-06-14T11:35:24;22.90;99.90
6355;DHT22;3210;48.708;9.030;2023-06-14T11:37:53;22.90;1.00
6355;DHT22;3210;48.708;9.030;2023-06-14T11:40:23;22.90;99.90
6355;DHT22;3210;48.708;9.030;2023-06-14T11:42:58;22.90;99.90
6355;DHT22;3210;48.708;9.030;2023-06-14T11:45:25;23.00;99.90
6355;DHT22;3210;48.708;9.030;2023-06-14T11:47:54;23.60;99.90
6355;DHT22;3210;48.708;9.030;2023-06-14T11:50:23;23.50;99.90
6355;DHT22;3210;48.708;9.030;2023-06-14T11:52:53;23.20;99.90
6355;DHT22;3210;48.708;9.030;2023-06-14T11:55:20;23.10;99.90
6355;DHT22;3210;48.708;9.030;2023-06-14T11:57:47;23.30;99.90
6355;DHT22;3210;48.708;9.030;2023-06-14T12:00:15;23.20;99.90
6355;DHT22;3210;48.708;9.030;2023-06-14T12:02:51;23.50;99.90
6355;DHT22;3210;48.708;9.030;2023-06-14T12:05:20;23.40;99.90
6355;DHT22;3210;48.708;9.030;2023-06-14T12:07:49;23.20;99.90
6355;DHT22;3210;48.708;9.030;2023-06-14T12:10:16;23.60;99.90
6355;DHT22;3210;48.708;9.030;2023-06-14T12:12:43;23.70;99.90
6355;DHT22;3210;48.708;9.030;2023-06-14T12:15:10;24.10;1.00
6355;DHT22;3210;48.708;9.030;2023-06-14T12:17:38;24.80;99.90
6355;DHT22;3210;48.708;9.030;2023-06-14T12:20:09;25.10;99.90
6355;DHT22;3210;48.708;9.030;2023-06-14T12:22:46;24.90;99.90
6355;DHT22;3210;48.708;9.030;2023-06-14T12:25:26;24.30;99.90
6355;DHT22;3210;48.708;9.030;2023-06-14T12:27:53;24.30;99.90
6355;DHT22;3210;48.708;9.030;2023-06-14T12:30:20;23.80;99.90
6355;DHT22;3210;48.708;9.030;2023-06-14T12:32:47;23.90;99.90
6355;DHT22;3210;48.708;9.030;2023-06-14T12:35:14;24.20;99.90
6355;DHT22;3210;48.708;9.030;2023-06-14T12:37:41;24.30;99.90
6355;DHT22;3210;48.708;9.030;2023-06-14T12:40:09;24.20;99.90
6355;DHT22;3210;48.708;9.030;2023-06-14T12:42:38;24.10;99.90
6355;DHT22;3210;48.708;9.030;2023-06-14T12:45:05;24.80;99.90
6355;DHT22;3210;48.708;9.030;2023-06-14T12:47:32;24.90;99.90
6355;DHT22;3210;48.708;9.030;2023-06-14T12:49:59;24.30;99.90
6355;DHT22;3210;48.708;9.030;2023-06-14T12:52:27;24.10;99.90
6355;DHT22;3210;48.708;9.030;2023-06-14T12:54:53;23.70;99.90
6355;DHT22;3210;48.708;9.030;2023-06-14T12:57:20;24.40;99.90
6355;DHT22;3210;48.708;9.030;2023-06-14T12:59:48;24.40;99.90
6355;DHT22;3210;48.708;9.030;2023-06-14T13:02:16;24.50;99.90
6355;DHT22;3210;48.708;9.030;2023-06-14T13:04:44;24.60;99.90
6355;DHT22;3210;48.708;9.030;2023-06-14T13:07:11;24.10;99.90
6355;DHT22;3210;48.708;9.030;2023-06-14T13:09:38;24.60;1.00
6355;DHT22;3210;48.708;9.030;2023-06-14T13:12:05;25.40;99.90
6355;DHT22;3210;48.708;9.030;2023-06-14T13:14:32;25.60;99.90
6355;DHT22;3210;48.708;9.030;2023-06-14T13:17:00;24.90;99.90
6355;DHT22;3210;48.708;9.030;2023-06-14T13:19:27;23.90;99.90
6355;DHT22;3210;48.708;9.030;2023-06-14T13:21:54;23.80;99.90
6355;DHT22;3210;48.708;9.030;2023-06-14T13:24:20;23.80;99.90
6355;DHT22;3210;48.708;9.030;2023-06-14T13:26:47;24.00;99.90
6355;DHT22;3210;48.708;9.030;2023-06-14T13:29:14;24.40;1.00
6355;DHT22;3210;48.708;9.030;2023-06-14T13:31:41;24.20;99.90
6355;DHT22;3210;48.708;9.030;2023-06-14T13:34:09;23.40;99.90
6355;DHT22;3210;48.708;9.030;2023-06-14T13:36:36;24.00;99.90
6355;DHT22;3210;48.708;9.030;2023-06-14T13:39:03;24.50;99.90
6355;DHT22;3210;48.708;9.030;2023-06-14T13:41:29;24.30;99.90
6355;DHT22;3210;48.708;9.030;2023-06-14T13:43:59;24.60;99.90
6355;DHT22;3210;48.708;9.030;2023-06-14T13:46:26;24.80;99.90
6355;DHT22;3210;48.708;9.030;2023-06-14T13:48:53;24.90;99.90
6355;DHT22;3210;48.708;9.030;2023-06-14T13:51:21;24.90;99.90
6355;DHT22;3210;48.708;9.030;2023-06-14T13:53:48;24.90;1.00
6355;DHT22;3210;48.708;9.030;2023-06-14T13:56:16;25.40;99.90
6355;DHT22;3210;48.708;9.030;2023-06-14T13:58:44;25.40;99.90
6355;DHT22;3210;48.708;9.030;2023-06-14T14:01:11;24.90;99.90
6355;DHT22;3210;48.708;9.030;2023-06-14T14:03:38;25.10;99.90
6355;DHT22;3210;48.708;9.030;2023-06-14T14:06:05;25.20;1.00
6355;DHT22;3210;48.708;9.030;2023-06-14T14:08:35;25.40;99.90
6355;DHT22;3210;48.708;9.030;2023-06-14T14:11:02;25.40;99.90
6355;DHT22;3210;48.708;9.030;2023-06-14T14:13:28;24.90;99.90
6355;DHT22;3210;48.708;9.030;2023-06-14T14:15:55;24.30;99.90
6355;DHT22;3210;48.708;9.030;2023-06-14T14:18:23;24.50;99.90
6355;DHT22;3210;48.708;9.030;2023-06-14T14:20:50;24.80;99.90
6355;DHT22;3210;48.708;9.030;2023-06-14T14:23:16;25.20;99.90
6355;DHT22;3210;48.708;9.030;2023-06-14T14:25:47;25.70;99.90
6355;DHT22;3210;48.708;9.030;2023-06-14T14:28:13;25.20;99.90
6355;DHT22;3210;48.708;9.030;2023-06-14T14:30:41;25.20;1.00
6355;DHT22;3210;48.708;9.030;2023-06-14T14:33:08;25.60;1.00
6355;DHT22;3210;48.708;9.030;2023-06-14T14:35:37;24.90;99.90
6355;DHT22;3210;48.708;9.030;2023-06-14T14:38:03;25.10;1.00
6355;DHT22;3210;48.708;9.030;2023-06-14T14:40:30;25.40;99.90
6355;DHT22;3210;48.708;9.030;2023-06-14T14:42:58;25.30;99.90
6355;DHT22;3210;48.708;9.030;2023-06-14T14:45:25;25.60;99.90
6355;DHT22;3210;48.708;9.030;2023-06-14T14:47:52;25.60;99.90
6355;DHT22;3210;48.708;9.030;2023-06-14T14:50:19;26.10;99.90
6355;DHT22;3210;48.708;9.030;2023-06-14T14:52:45;25.90;99.90
6355;DHT22;3210;48.708;9.030;2023-06-14T14:55:12;25.90;99.90
6355;DHT22;3210;48.708;9.030;2023-06-14T14:57:39;25.60;99.90
6355;DHT22;3210;48.708;9.030;2023-06-14T15:00:08;24.60;99.90
6355;DHT22;3210;48.708;9.030;2023-06-14T15:02:35;24.50;99.90
6355;DHT22;3210;48.708;9.030;2023-06-14T15:05:02;24.90;99.90
6355;DHT22;3210;48.708;9.030;2023-06-14T15:07:30;24.80;99.90
6355;DHT22;3210;48.708;9.030;2023-06-14T15:09:59;24.00;99.90
6355;DHT22;3210;48.708;9.030;2023-06-14T15:12:28;24.10;99.90
6355;DHT22;3210;48.708;9.030;2023-06-14T15:14:55;24.10;99.90
6355;DHT22;3210;48.708;9.030;2023-06-14T15:17:24;24.10;99.90
6355;DHT22;3210;48.708;9.030;2023-06-14T15:19:50;24.40;99.90
6355;DHT22;3210;48.708;9.030;2023-06-14T15:22:17;24.70;99.90
6355;DHT22;3210;48.708;9.030;2023-06-14T15:24:44;25.20;99.90
6355;DHT22;3210;48.708;9.030;2023-06-14T15:27:12;24.90;99.90
6355;DHT22;3210;48.708;9.030;2023-06-14T15:29:41;25.20;99.90
6355;DHT22;3210;48.708;9.030;2023-06-14T15:32:08;24.90;99.90
6355;DHT22;3210;48.708;9.030;2023-06-14T15:34:37;24.50;99.90
6355;DHT22;3210;48.708;9.030;2023-06-14T15:37:05;24.70;99.90
6355;DHT22;3210;48.708;9.030;2023-06-14T15:39:32;24.90;99.90
6355;DHT22;3210;48.708;9.030;2023-06-14T15:41:59;25.10;99.90
6355;DHT22;3210;48.708;9.030;2023-06-14T15:44:26;25.20;99.90
6355;DHT22;3210;48.708;9.030;2023-06-14T15:46:53;25.20;1.00
6355;DHT22;3210;48.708;9.030;2023-06-14T15:49:20;24.60;99.90
6355;DHT22;3210;48.708;9.030;2023-06-14T15:51:48;24.90;99.90
6355;DHT22;3210;48.708;9.030;2023-06-14T15:54:15;25.00;99.90
6355;DHT22;3210;48.708;9.030;2023-06-14T15:56:42;25.10;99.90
6355;DHT22;3210;48.708;9.030;2023-06-14T15:59:09;24.70;99.90
6355;DHT22;3210;48.708;9.030;2023-06-14T16:01:35;24.20;99.90
6355;DHT22;3210;48.708;9.030;2023-06-14T16:04:03;24.70;99.90
6355;DHT22;3210;48.708;9.030;2023-06-14T16:06:30;24.80;99.90
6355;DHT22;3210;48.708;9.030;2023-06-14T16:08:58;25.40;99.90
6355;DHT22;3210;48.708;9.030;2023-06-14T16:11:24;25.80;99.90
6355;DHT22;3210;48.708;9.030;2023-06-14T16:13:51;25.90;99.90